createdAt,value
2023-01-09T00:07:30.840Z,997.54
2023-01-09T00:17:38.419Z,997.39
2023-01-09T00:27:45.130Z,997.27
2023-01-09T00:37:52.535Z,997.13
2023-01-09T00:47:59.398Z,996.97
2023-01-09T00:58:06.289Z,996.83
2023-01-09T01:08:13.426Z,996.79
2023-01-09T01:18:20.105Z,996.74
2023-01-09T01:28:27.483Z,996.61
2023-01-09T01:38:34.586Z,996.66
2023-01-09T01:48:41.555Z,996.48
2023-01-09T01:58:48.699Z,996.32
2023-01-09T02:08:55.331Z,996.21
2023-01-09T02:19:02.457Z,996.15
2023-01-09T02:29:09.589Z,996.17
2023-01-09T02:39:16.784Z,996.07
2023-01-09T02:49:23.366Z,996.17
2023-01-09T02:59:30.814Z,996.21
2023-01-09T03:09:37.435Z,996.11
2023-01-09T03:19:44.767Z,996.05
2023-01-09T03:29:51.778Z,995.88
2023-01-09T03:39:58.958Z,995.77
2023-01-09T03:50:06.126Z,995.62
2023-01-09T04:00:12.934Z,995.48
2023-01-09T04:10:20.350Z,995.48
2023-01-09T04:20:27.403Z,995.30
2023-01-09T04:30:35.170Z,995.30
2023-01-09T04:40:41.986Z,995.22
2023-01-09T04:50:49.343Z,995.13
2023-01-09T05:00:56.538Z,995.17
2023-01-09T05:11:04.376Z,995.06
2023-01-09T05:21:10.959Z,994.97
2023-01-09T05:31:18.184Z,994.92
2023-01-09T05:41:25.210Z,994.87
2023-01-09T05:51:32.704Z,994.92
2023-01-09T06:01:39.811Z,994.75
2023-01-09T06:11:46.630Z,994.74
2023-01-09T06:21:53.893Z,994.70
2023-01-09T06:32:01.067Z,994.74
2023-01-09T06:42:09.066Z,994.71
2023-01-09T06:52:15.663Z,994.58
2023-01-09T07:02:22.919Z,994.42
2023-01-09T07:12:29.917Z,994.46
2023-01-09T07:22:36.897Z,994.47
2023-01-09T07:32:44.239Z,994.53
2023-01-09T07:42:51.077Z,994.57
2023-01-09T07:52:58.332Z,994.52
2023-01-09T08:03:05.055Z,994.61
2023-01-09T08:13:12.088Z,994.66
2023-01-09T08:23:19.380Z,994.65
2023-01-09T08:33:26.270Z,994.68
2023-01-09T08:43:32.943Z,994.77
2023-01-09T08:53:40.493Z,994.91
2023-01-09T09:03:47.416Z,994.91
2023-01-09T09:13:54.641Z,995.08
2023-01-09T09:24:01.518Z,995.06
2023-01-09T09:34:08.739Z,995.21
2023-01-09T09:44:15.282Z,995.21
2023-01-09T09:54:22.706Z,995.44
2023-01-09T10:04:29.911Z,995.46
2023-01-09T10:14:36.612Z,995.47
2023-01-09T10:24:43.614Z,995.49
2023-01-09T10:34:50.855Z,995.71
2023-01-09T10:44:57.928Z,995.73
2023-01-09T10:55:04.943Z,995.84
2023-01-09T11:05:12.296Z,995.98
2023-01-09T11:15:19.369Z,996.03
2023-01-09T11:25:27.075Z,996.24
2023-01-09T11:35:35.080Z,996.38
2023-01-09T11:45:47.723Z,996.47
2023-01-09T11:55:54.097Z,996.51
2023-01-09T12:06:01.438Z,996.67
2023-01-09T12:16:08.494Z,996.78
2023-01-09T12:26:15.540Z,996.79
2023-01-09T12:36:23.147Z,996.83
2023-01-09T12:46:29.986Z,996.78
2023-01-09T12:56:37.445Z,996.89
2023-01-09T13:06:44.622Z,996.97
2023-01-09T13:16:52.155Z,996.95
2023-01-09T13:26:59.439Z,996.88
2023-01-09T13:37:06.964Z,996.92
2023-01-09T13:47:14.634Z,996.97
2023-01-09T13:57:21.828Z,997.14
2023-01-09T14:07:29.249Z,997.39
2023-01-09T14:17:35.756Z,997.65
2023-01-09T14:27:42.630Z,997.77
2023-01-09T14:37:49.795Z,997.97
2023-01-09T14:47:56.513Z,998.03
2023-01-09T14:58:04.275Z,998.10
2023-01-09T15:08:13.749Z,998.24
2023-01-09T15:18:20.756Z,998.30
2023-01-09T15:28:27.850Z,998.48
2023-01-09T15:38:34.726Z,998.58
2023-01-09T15:48:42.088Z,998.63
2023-01-09T15:58:49.127Z,998.77
2023-01-09T16:08:56.075Z,998.76
2023-01-09T16:19:03.393Z,999.05
2023-01-09T16:29:10.247Z,998.91
2023-01-09T16:39:17.348Z,999.15
2023-01-09T16:49:25.420Z,999.18
2023-01-09T16:59:32.645Z,999.22
2023-01-09T17:09:39.558Z,999.33
2023-01-09T17:19:46.260Z,999.26
2023-01-09T17:29:53.507Z,999.36
2023-01-09T17:40:00.596Z,999.34
2023-01-09T17:50:07.448Z,999.34
2023-01-09T18:00:14.771Z,999.47
2023-01-09T18:10:21.696Z,999.68
2023-01-09T18:20:28.441Z,999.71
2023-01-09T18:30:35.583Z,999.87
2023-01-09T18:40:41.729Z,999.96
2023-01-09T18:50:49.889Z,1000.18
2023-01-09T19:00:56.973Z,1000.21
2023-01-09T19:11:04.813Z,1000.32
2023-01-09T19:21:12.358Z,1000.41
2023-01-09T19:31:19.784Z,1000.50
2023-01-09T19:41:27.010Z,1000.64
2023-01-09T19:51:34.442Z,1000.66
2023-01-09T20:01:40.872Z,1000.78
2023-01-09T20:11:48.142Z,1000.79
2023-01-09T20:21:55.240Z,1000.84
2023-01-09T20:32:02.914Z,1001.05
2023-01-09T20:42:10.334Z,1001.28
2023-01-09T20:52:17.634Z,1001.36
2023-01-09T21:02:24.615Z,1001.52
2023-01-09T21:12:31.240Z,1001.66
2023-01-09T21:22:38.649Z,1001.77
2023-01-09T21:32:45.868Z,1001.85
2023-01-09T21:42:52.711Z,1002.12
2023-01-09T21:52:59.494Z,1002.20
2023-01-09T22:03:05.761Z,1002.36
2023-01-09T22:13:12.533Z,1002.64
2023-01-09T22:23:20.155Z,1002.78
2023-01-09T22:33:26.838Z,1002.95
2023-01-09T22:43:33.804Z,1003.12
2023-01-09T22:53:40.881Z,1003.29
2023-01-09T23:03:48.066Z,1003.59
2023-01-09T23:13:55.080Z,1003.64
2023-01-09T23:24:01.947Z,1003.62
2023-01-09T23:34:08.828Z,1003.85
2023-01-09T23:44:15.732Z,1003.90
2023-01-09T23:54:22.378Z,1004.10
